x

Western Hawaii - 205 Nm Sw Of Honolulu, Hi (51003) Wave Buoy

1:50am - Thu 30th Oct 2014 All times are HST. -10 hours from GMT.

  • Sig Wave height 9.8ft
  • Peak Period 10s
  • Average Period 7s
  • Wind
    18mph, 22mph gusts
  • Sea Temp 82°f
  • Air Temp 79°f
  • Sea Pressure 1016.7mb
  • Western  Hawaii - 205 Nm Sw Of Honolulu, Hi
  • Western  Hawaii - 205 Nm Sw Of Honolulu, Hi

More Historic Weather Station data

Upgrade to MSW Pro to gain access to the past 30 days of data for over 8000 Wavebouys and Weather Stations around the globe.

Join Pro

Comparision Forecast

View Surf forecast
   
Thu 10/30 1:50am 10ft 10s 7s 18 22 mph 1016.7mb 82f 79f
12:50am 9ft 11s 7s 18 22 mph 1016.9mb 82f 81f
Wed 10/29 11:50pm 9ft 10s 7s 18 22 mph 1017.3mb 82f 81f
10:50pm 8.5ft 10s 7s 16 20 mph 1017.6mb 82f 80f
9:50pm 9ft 10s 7s 20 27 mph 1017.8mb 82f 80f
8:50pm 8ft 11s 7s 20 25 mph 1017.5mb 82f 81f
7:50pm 8ft 11s 6s 18 20 mph 1016.9mb 82f 81f
6:50pm 7ft 11s 6s 20 25 mph 1016.3mb 82f 81f
5:50pm 7ft 11s 6s 20 25 mph 1015.6mb 82f 81f
4:50pm 7ft 11s 6s 20 22 mph 1015mb 82f 81f
3:50pm 6.5ft 11s 6s 20 25 mph 1014.7mb 82f 81f
2:50pm 6ft 11s 6s 20 22 mph 1015.1mb 82f 81f
1:50pm 6ft 11s 6s 18 20 mph 1015.7mb 82f 81f
12:50pm 6ft 12s 6s 13 18 mph 1016.6mb 82f 80f
11:50am 5.5ft 11s 6s 18 20 mph 1017.4mb 82f 80f
10:50am 5.5ft 12s 6s 16 18 mph 1017.9mb 82f 81f
9:50am 5.5ft 11s 6s 13 18 mph 1018.2mb 82f 81f
8:50am 5.5ft 12s  -  16 18 mph 1017.8mb 82f 81f
7:50am 5ft 12s 5s 16 20 mph 1017.4mb 82f 81f
6:50am 5.5ft 12s 6s 16 20 mph 1016.9mb 82f 81f
5:50am 5ft 8s 6s 16 18 mph 1016.5mb 82f 81f
4:50am 5ft 8s 6s 16 18 mph 1016.2mb 82f 81f
3:50am 5ft 7s 6s 13 16 mph 1016.4mb 82f 81f
2:50am 5ft 7s 6s 13 16 mph 1016.5mb 82f 81f
1:50am 5ft 8s 6s 13 16 mph 1017mb 82f 81f
12:50am 5ft 7s 6s 11 16 mph 1017.4mb 82f 81f
Tue 10/28 11:50pm 5ft 8s 6s 13 18 mph 1017.4mb 82f 81f
10:50pm 5ft 7s 6s 11 16 mph 1017.5mb 82f 81f
9:50pm 5ft 7s 6s 11 13 mph 1017.5mb 82f 80f
8:50pm 5ft 6s 6s 11 13 mph 1017.5mb 82f 80f
7:50pm 5ft 8s 5s 13
mph
1016.9mb 82f 81f
6:50pm 5.5ft 8s 6s 13 16 mph 1016.2mb 82f 80f
5:50pm 5ft 8s 5s 16 18 mph 1015.5mb 82f 81f
4:50pm 5.5ft 7s 6s 18 22 mph 1014.7mb 82f 82f
3:50pm 5ft 8s 6s 11 13 mph 1014.4mb 82f 81f
2:50pm 5ft 7s 6s 13 16 mph 1014.1mb 82f 80f
1:50pm 5ft 6s 5s 13 16 mph 1014.6mb 82f 81f
12:50pm 5ft 7s 6s 16 18 mph 1015mb 82f 80f
11:50am 5ft 8s 6s 18 20 mph 1015.2mb 82f 80f
10:50am 5ft 8s 6s 11 13 mph 1015.8mb 82f 81f
9:50am 5.5ft 8s 6s 11 13 mph 1016mb 82f 81f
8:50am 5ft 7s 5s 13 16 mph 1015.7mb 82f 81f
7:50am 5.5ft 7s 6s 13 16 mph 1015.2mb 82f 81f
6:50am 5ft 7s 5s 16 18 mph 1014.9mb 82f 80f
5:50am 5ft 6s 5s 13 18 mph 1014.7mb 82f 80f
4:50am 5ft 7s 6s 18 20 mph 1014.3mb 82f 78f
3:50am 5ft 11s 6s 13 16 mph 1014.5mb 82f 80f
2:50am 5ft 8s 5s 16 20 mph 1014.7mb 82f 80f
1:50am 5ft 7s 5s 18 22 mph 1015mb 82f 80f
12:50am 5ft 7s 5s 13 16 mph 1015.7mb 82f 80f
Mon 10/27 11:50pm 5ft 8s 6s 13 16 mph 1015.9mb 82f 80f
10:50pm 5ft 8s 6s 9 11 mph 1016.3mb 82f 80f
9:50pm 5ft 7s 5s 13
mph
1016.3mb 82f 79f
8:50pm 5ft 7s 6s 9 16 mph 1016.3mb 82f 79f
7:50pm 5ft 8s 5s 22 27 mph 1015.5mb 82f 77f
6:50pm 5ft 7s 5s 13 16 mph 1015mb 82f 81f
5:50pm 5ft 8s 5s 16 18 mph 1014.4mb 82f 81f
4:50pm 5ft 8s 6s 13 16 mph 1014mb 82f 81f
3:50pm 5ft 8s 5s 16 18 mph 1013.7mb 82f 81f
2:50pm 4.5ft 7s 5s 16 18 mph 1013.5mb 82f 81f
1:50pm 5ft 7s 5s 16 18 mph 1014.1mb 82f 81f
12:50pm 4.5ft 7s 5s 16 18 mph 1014.8mb 82f 81f
11:50am 5ft 8s 6s 16 18 mph 1015.5mb 82f 81f
10:50am 5ft 7s 5s 13 16 mph 1016.2mb 82f 81f
9:50am 5.5ft 8s 6s 13 16 mph 1016.4mb 82f 81f
8:50am 5.5ft 7s 5s 16 18 mph 1015.9mb 82f 81f
7:50am 5ft 7s 5s 16 18 mph 1015.6mb 82f 80f
6:50am 5ft 7s 6s 13 18 mph 1015.2mb 82f 80f
5:50am 6ft 7s 6s 16
mph
1014.9mb 82f 80f
4:50am 5.5ft 7s 6s 13 18 mph 1015.2mb 82f 80f
3:50am 5.5ft 8s 6s 16 20 mph 1015.1mb 82f 80f
2:50am 5ft 8s 6s 16 20 mph 1015.3mb 82f 80f
1:50am 6ft 8s 6s 16 20 mph 1015.7mb 82f 80f
12:50am 5ft 8s 6s 13 18 mph 1016mb 82f 81f
Sun 10/26 11:50pm 6ft 7s 6s 13 16 mph 1016.4mb 82f 81f
10:50pm 5.5ft 7s 6s 13 16 mph 1016.9mb 82f 81f
9:50pm 6ft 8s 7s 13 16 mph 1016.9mb 82f 81f
8:50pm 6ft 9s 7s 11
mph
1017.1mb 82f 81f
7:50pm 6ft 8s 7s 9 13 mph 1016.5mb 82f 81f
6:50pm 6ft 8s 6s 9 11 mph 1015.9mb 82f 81f
5:50pm 6.5ft 8s 7s 9
mph
1015.3mb 82f 81f
4:50pm 5.5ft 8s 6s 7 9 mph 1014.9mb 82f 81f
3:50pm 5.5ft 8s 6s 7 9 mph 1014.8mb 83f 81f
2:50pm 5.5ft 8s 6s 9 11 mph 1015mb 83f 81f
1:50pm 6ft 8s 7s 9 11 mph 1015.4mb 82f 80f